Time;durP1;ratioP1;P1;durP2;ratioP2;P2;SDS_P1;SDS_P2;PMS_P1;PMS_P2;Temp;Humidity;BMP_temperature;BMP_pressure;BME280_temperature;BME280_humidity;BME280_pressure;Samples;Min_cycle;Max_cycle;Signal;HPM_P1;HPM_P2
2023/01/28 00:02:03;;;;;;;5.32;3.80;;;;;;;-140.72;100.00;53233.03;6273419;22;20026;-68
2023/01/28 00:04:28;;;;;;;6.82;4.65;;;;;;;-140.72;100.00;53265.50;6273372;22;20004;-68
2023/01/28 00:06:54;;;;;;;6.22;3.97;;;;;;;-140.72;100.00;53263.47;6272230;22;20008;-69
2023/01/28 00:09:19;;;;;;;5.20;3.10;;;;;;;-140.72;100.00;53245.22;6273152;22;20077;-68
2023/01/28 00:11:47;;;;;;;6.88;3.47;;;;;;;-140.72;100.00;53275.66;6272583;22;20087;-68
2023/01/28 00:14:12;;;;;;;5.63;4.20;;;;;;;-140.72;100.00;53243.19;6272224;22;20000;-67
2023/01/28 00:16:38;;;;;;;7.13;4.22;;;;;;;-140.72;100.00;53267.53;6273875;22;20057;-68
2023/01/28 00:19:03;;;;;;;6.57;4.18;;;;;;;-140.72;100.00;53289.88;6272880;22;20740;-68
2023/01/28 00:21:29;;;;;;;7.78;4.72;;;;;;;-140.72;100.00;53306.09;6272163;22;20310;-68
2023/01/28 00:23:55;;;;;;;5.43;3.38;;;;;;;-140.72;100.00;53216.78;6273407;22;20034;-68
2023/01/28 00:26:22;;;;;;;6.78;3.58;;;;;;;-140.72;100.00;53263.47;6272813;22;20002;-70
2023/01/28 00:28:48;;;;;;;6.53;3.30;;;;;;;-140.72;100.00;53277.69;6272400;22;20034;-67
2023/01/28 00:31:16;;;;;;;4.82;3.40;;;;;;;-140.72;100.00;53253.31;6273704;22;19996;-68
2023/01/28 00:33:42;;;;;;;5.40;3.45;;;;;;;-140.72;100.00;53267.53;6272980;22;20004;-67
2023/01/28 00:36:09;;;;;;;7.88;4.35;;;;;;;-140.72;100.00;53291.88;6272796;22;20003;-70
2023/01/28 00:38:34;;;;;;;7.50;4.40;;;;;;;-140.72;100.00;53263.47;6273158;22;20074;-70
2023/01/28 00:41:12;;;;;;;6.47;3.85;;;;;;;-140.72;100.00;53243.19;6272117;22;20027;-68
2023/01/28 00:43:37;;;;;;;6.47;4.53;;;;;;;-140.72;100.00;53283.78;6272975;22;20357;-68
2023/01/28 00:46:06;;;;;;;6.32;4.07;;;;;;;-140.72;100.00;53263.47;6273275;22;20004;-69
2023/01/28 00:48:32;;;;;;;7.50;4.20;;;;;;;-140.72;100.00;53255.34;6272345;22;20030;-70
2023/01/28 00:50:57;;;;;;;6.65;4.20;;;;;;;-140.72;100.00;53289.88;6273013;22;19999;-67
2023/01/28 00:53:23;;;;;;;8.07;4.45;;;;;;;-140.72;100.00;53300.00;6272671;22;20445;-69
2023/01/28 00:55:48;;;;;;;8.35;4.03;;;;;;;-140.72;100.00;53251.31;6272006;22;20003;-68
2023/01/28 00:58:13;;;;;;;7.00;4.18;;;;;;;-140.72;100.00;53275.66;6272625;22;20191;-69
2023/01/28 01:00:39;;;;;;;5.40;3.85;;;;;;;-140.72;100.00;53293.91;6272655;22;20353;-67
2023/01/28 01:03:04;;;;;;;5.82;3.63;;;;;;;-140.72;100.00;53259.41;6271053;22;20012;-68
2023/01/28 01:05:32;;;;;;;8.07;3.95;;;;;;;-140.72;100.00;53267.53;6273515;22;20041;-68
2023/01/28 01:07:58;;;;;;;7.40;4.00;;;;;;;-140.72;100.00;53295.94;6272612;22;20074;-67
2023/01/28 01:10:24;;;;;;;6.88;3.53;;;;;;;-140.72;100.00;53269.56;6272629;22;20030;-68
2023/01/28 01:12:52;;;;;;;6.32;4.50;;;;;;;-140.72;100.00;53283.78;6272779;22;20330;-69
2023/01/28 01:15:18;;;;;;;5.88;3.42;;;;;;;-140.72;100.00;53287.84;6272569;22;20026;-68
2023/01/28 01:17:46;;;;;;;6.55;4.28;;;;;;;-140.72;100.00;53279.72;6271948;22;20000;-69
2023/01/28 01:20:18;;;;;;;5.63;3.65;;;;;;;-140.72;100.00;53239.13;6273406;22;20409;-69
2023/01/28 01:22:44;;;;;;;8.23;3.97;;;;;;;-140.72;100.00;53259.41;6272864;22;20053;-68
2023/01/28 01:25:11;;;;;;;7.93;4.43;;;;;;;-140.72;100.00;53239.13;6271802;22;20031;-66
2023/01/28 01:27:37;;;;;;;6.40;4.03;;;;;;;-140.72;100.00;53218.81;6272595;22;20476;-68
2023/01/28 01:30:03;;;;;;;5.32;3.90;;;;;;;-140.72;100.00;53255.34;6272086;22;19996;-68
2023/01/28 01:32:30;;;;;;;6.68;4.18;;;;;;;-140.72;100.00;53263.47;6272082;22;20357;-68
2023/01/28 01:34:55;;;;;;;5.15;3.72;;;;;;;-140.72;100.00;53293.91;6272996;22;20000;-68
2023/01/28 01:37:21;;;;;;;6.43;3.95;;;;;;;-140.72;100.00;53263.47;6271620;22;20445;-68
2023/01/28 01:39:46;;;;;;;5.88;3.65;;;;;;;-140.72;100.00;53259.41;6272084;22;19995;-68
2023/01/28 01:42:12;;;;;;;7.53;4.20;;;;;;;-140.72;100.00;53271.59;6272740;22;20073;-67
2023/01/28 01:44:53;;;;;;;7.38;3.63;;;;;;;-140.72;100.00;53226.94;6271117;22;20303;-70
2023/01/28 01:47:23;;;;;;;7.55;3.97;;;;;;;-140.72;100.00;53295.94;6272792;22;20003;-68
2023/01/28 01:49:48;;;;;;;6.63;3.90;;;;;;;-140.72;100.00;53283.78;6272856;22;19999;-70
2023/01/28 01:52:20;;;;;;;7.32;5.15;;;;;;;-140.72;100.00;53281.75;6272043;22;19996;-69
2023/01/28 01:54:51;;;;;;;6.72;3.75;;;;;;;-140.72;100.00;53275.66;6272095;22;19999;-69
2023/01/28 01:57:23;;;;;;;8.68;3.30;;;;;;;-140.72;100.00;53283.78;6272826;22;20074;-70
2023/01/28 01:59:49;;;;;;;7.28;4.80;;;;;;;-140.72;100.00;53273.63;6271459;22;20000;-68
2023/01/28 02:02:14;;;;;;;6.22;3.95;;;;;;;-140.72;100.00;53255.34;6272852;22;20062;-70
2023/01/28 02:04:43;;;;;;;7.78;4.38;;;;;;;-140.72;100.00;53255.34;6272250;22;20433;-70
2023/01/28 02:07:12;;;;;;;6.80;4.00;;;;;;;-140.72;100.00;53285.81;6272029;22;19996;-70
2023/01/28 02:09:37;;;;;;;10.00;4.85;;;;;;;-140.72;100.00;53261.44;6272373;22;20015;-70
2023/01/28 02:12:12;;;;;;;7.93;4.65;;;;;;;-140.72;100.00;53265.50;6271624;22;20000;-68
2023/01/28 02:15:09;;;;;;;7.45;4.30;;;;;;;-140.72;100.00;53212.75;6272483;22;20004;-70
2023/01/28 02:17:36;;;;;;;5.70;3.30;;;;;;;-140.72;100.00;53271.59;6259965;22;20007;-69
2023/01/28 02:20:11;;;;;;;7.15;4.05;;;;;;;-140.72;100.00;53275.66;6271732;22;20007;-68
2023/01/28 02:22:54;;;;;;;7.57;4.60;;;;;;;-140.72;100.00;53287.84;6272430;22;20004;-68
2023/01/28 02:25:47;;;;;;;9.63;5.72;;;;;;;-140.72;100.00;53269.56;6272613;22;20000;-70
2023/01/28 02:28:28;;;;;;;6.70;4.70;;;;;;;-140.72;100.00;53251.31;6271825;22;20419;-68
2023/01/28 02:31:09;;;;;;;6.15;3.90;;;;;;;-140.72;100.00;53265.50;6272196;22;20263;-68
2023/01/28 02:33:48;;;;;;;7.75;4.03;;;;;;;-140.72;100.00;53255.34;6271690;22;20007;-68
2023/01/28 02:36:26;;;;;;;7.07;5.03;;;;;;;-140.72;100.00;53285.81;6273698;22;20426;-69
2023/01/28 02:38:54;;;;;;;6.40;4.10;;;;;;;-140.72;100.00;53222.88;6273551;22;20015;-69
2023/01/28 02:41:31;;;;;;;8.93;4.75;;;;;;;-140.72;100.00;53239.13;6273431;22;19999;-69
2023/01/28 02:44:00;;;;;;;7.55;4.03;;;;;;;-140.72;100.00;53263.47;6272845;22;20121;-70
2023/01/28 02:49:45;;;;;;;6.68;3.40;;;;;;;-140.72;100.00;53263.47;6273776;22;20014;-70
2023/01/28 02:55:24;;;;;;;7.07;3.85;;;;;;;-140.72;100.00;53265.50;6273234;22;20014;-67
2023/01/28 02:58:28;;;;;;;9.82;4.90;;;;;;;-140.72;100.00;53269.56;6273748;22;20429;-70
2023/01/28 03:01:12;;;;;;;8.27;4.95;;;;;;;-140.72;100.00;53261.44;6274110;22;20421;-68
2023/01/28 03:03:48;;;;;;;10.63;4.35;;;;;;;-140.72;100.00;53293.91;6273242;22;20306;-68
2023/01/28 03:06:17;;;;;;;5.97;4.10;;;;;;;-140.72;100.00;53277.69;6273833;22;20299;-71
2023/01/28 03:36:47;;;;;;;9.00;4.57;;;;;;;-140.72;100.00;53257.38;6272963;22;20015;-68
2023/01/28 03:39:13;;;;;;;6.23;4.30;;;;;;;-140.72;100.00;53271.59;6274161;22;20223;-68
2023/01/28 03:41:38;;;;;;;4.60;3.03;;;;;;;-140.72;100.00;53279.72;6274028;22;20287;-70
2023/01/28 03:46:50;;;;;;;5.38;3.60;;;;;;;-140.72;100.00;53275.66;6273154;22;20064;-68
2023/01/28 03:49:16;;;;;;;3.95;2.70;;;;;;;-140.72;100.00;53231.00;6274140;22;20071;-68
2023/01/28 03:51:42;;;;;;;5.20;2.92;;;;;;;-140.72;100.00;53287.84;6272916;22;20007;-70
2023/01/28 03:54:08;;;;;;;4.78;2.80;;;;;;;-140.72;100.00;53306.09;6273549;22;20010;-69
2023/01/28 03:56:36;;;;;;;4.03;2.65;;;;;;;-140.72;100.00;53251.31;6270742;22;20074;-70
2023/01/28 03:59:04;;;;;;;5.97;2.95;;;;;;;-140.72;100.00;53261.44;6273353;22;20000;-69
2023/01/28 04:01:29;;;;;;;4.53;3.03;;;;;;;-140.72;100.00;53263.47;6273666;22;20000;-68
2023/01/28 04:03:55;;;;;;;3.55;2.33;;;;;;;-140.72;100.00;53273.63;6273073;22;20406;-68
2023/01/28 04:06:23;;;;;;;3.75;2.50;;;;;;;-140.72;100.00;53263.47;6272712;22;20075;-68
2023/01/28 04:08:51;;;;;;;3.92;2.30;;;;;;;-140.72;100.00;53228.97;6273100;22;20185;-68
2023/01/28 04:11:20;;;;;;;3.95;2.38;;;;;;;-140.72;100.00;53261.44;6273381;22;20082;-70
2023/01/28 04:13:47;;;;;;;3.85;2.35;;;;;;;-140.72;100.00;53267.53;6272663;22;20053;-67
2023/01/28 04:16:15;;;;;;;5.65;2.47;;;;;;;-140.72;100.00;53283.78;6274101;22;19995;-68
2023/01/28 04:18:41;;;;;;;4.30;2.60;;;;;;;-140.72;100.00;53287.84;6272971;22;20134;-70
2023/01/28 04:21:06;;;;;;;3.65;2.95;;;;;;;-140.72;100.00;53226.94;6272456;22;20002;-67
2023/01/28 04:23:32;;;;;;;3.33;2.45;;;;;;;-140.72;100.00;53257.38;6273783;22;20079;-70
2023/01/28 04:25:57;;;;;;;3.65;2.20;;;;;;;-140.72;100.00;53259.41;6271685;22;20346;-67
2023/01/28 04:28:23;;;;;;;3.88;2.45;;;;;;;-140.72;100.00;53273.63;6273974;22;20000;-68
2023/01/28 04:30:48;;;;;;;4.30;2.72;;;;;;;-140.72;100.00;53318.28;6273388;22;20306;-67
2023/01/28 04:33:14;;;;;;;6.72;2.75;;;;;;;-140.72;100.00;53243.19;6272288;22;20318;-68
2023/01/28 04:35:39;;;;;;;4.47;2.75;;;;;;;-140.72;100.00;53237.09;6272735;22;19996;-68
2023/01/28 04:38:08;;;;;;;2.95;2.05;;;;;;;-140.72;100.00;53283.78;6273479;22;20016;-68
2023/01/28 04:40:34;;;;;;;3.63;2.42;;;;;;;-140.72;100.00;53247.25;6273183;22;20157;-67
2023/01/28 04:42:59;;;;;;;3.95;1.95;;;;;;;-140.72;100.00;53283.78;6272686;22;20430;-67
2023/01/28 04:45:28;;;;;;;7.30;2.85;;;;;;;-140.72;100.00;53251.31;6273453;22;20050;-68
2023/01/28 04:47:54;;;;;;;4.25;2.30;;;;;;;-140.72;100.00;53287.84;6272726;22;20010;-69
2023/01/28 04:50:19;;;;;;;3.63;2.45;;;;;;;-140.72;100.00;53291.88;6273799;22;20070;-68
2023/01/28 04:52:44;;;;;;;3.42;2.15;;;;;;;-140.72;100.00;53283.78;6272668;22;20000;-68
2023/01/28 04:55:10;;;;;;;2.50;1.83;;;;;;;-140.72;100.00;53257.38;6272462;22;20318;-68
2023/01/28 04:57:35;;;;;;;4.28;2.15;;;;;;;-140.72;100.00;53265.50;6272769;22;20000;-67
2023/01/28 05:00:01;;;;;;;3.95;2.15;;;;;;;-140.72;100.00;53261.44;6272458;22;20007;-68
2023/01/28 05:02:29;;;;;;;2.63;2.03;;;;;;;-140.72;100.00;53279.72;6271385;22;19999;-68
2023/01/28 05:04:54;;;;;;;4.70;2.05;;;;;;;-140.72;100.00;53330.44;6271759;22;20004;-68
2023/01/28 05:07:20;;;;;;;4.15;2.53;;;;;;;-140.72;100.00;53295.94;6271764;22;20003;-67
2023/01/28 05:09:45;;;;;;;4.10;2.28;;;;;;;-140.72;100.00;53255.34;6271013;22;20000;-67
2023/01/28 05:12:10;;;;;;;5.28;2.00;;;;;;;-140.72;100.00;53302.03;6271428;22;19999;-69
2023/01/28 05:14:36;;;;;;;3.80;2.30;;;;;;;-140.72;100.00;53283.78;6272109;22;20075;-68
2023/01/28 05:17:01;;;;;;;2.78;2.10;;;;;;;-140.72;100.00;53263.47;6270820;22;20004;-67
2023/01/28 05:19:26;;;;;;;3.17;2.03;;;;;;;-140.72;100.00;53249.28;6273107;22;20430;-67
2023/01/28 05:21:52;;;;;;;3.15;2.08;;;;;;;-140.72;100.00;53247.25;6272614;22;20011;-68
2023/01/28 05:24:17;;;;;;;3.65;2.33;;;;;;;-140.72;100.00;53271.59;6271641;22;20310;-68
2023/01/28 05:26:43;;;;;;;4.28;1.90;;;;;;;-140.72;100.00;53253.31;6273008;22;20146;-69
2023/01/28 05:29:08;;;;;;;3.30;2.17;;;;;;;-140.72;100.00;53265.50;6271382;22;19999;-68
2023/01/28 05:31:34;;;;;;;3.63;2.40;;;;;;;-140.72;100.00;53273.63;6272295;22;20011;-68
2023/01/28 05:33:59;;;;;;;2.85;1.80;;;;;;;-140.72;100.00;53279.72;6271828;22;19995;-67
2023/01/28 05:36:25;;;;;;;2.75;2.20;;;;;;;-140.72;100.00;53312.19;6271554;22;20356;-68
2023/01/28 05:38:50;;;;;;;2.60;1.90;;;;;;;-140.72;100.00;53267.53;6270970;22;20057;-68
2023/01/28 05:41:15;;;;;;;3.67;1.88;;;;;;;-140.72;100.00;53249.28;6271613;22;20398;-68
2023/01/28 05:43:41;;;;;;;2.60;1.92;;;;;;;-140.72;100.00;53247.25;6271138;22;20011;-67
2023/01/28 05:46:06;;;;;;;4.38;2.42;;;;;;;-140.72;100.00;53255.34;6271218;22;20003;-68
2023/01/28 05:48:32;;;;;;;3.00;1.85;;;;;;;-140.72;100.00;53279.72;6272450;22;19996;-68
2023/01/28 05:50:57;;;;;;;4.50;2.42;;;;;;;-140.72;100.00;53287.84;6272001;22;20004;-69
2023/01/28 05:53:23;;;;;;;4.45;2.75;;;;;;;-140.72;100.00;53251.31;6272458;22;20004;-69
2023/01/28 05:55:49;;;;;;;3.85;2.72;;;;;;;-140.72;100.00;53316.25;6272641;22;20003;-68
2023/01/28 05:58:15;;;;;;;2.97;1.98;;;;;;;-140.72;100.00;53293.91;6271912;22;20445;-68
2023/01/28 06:00:40;;;;;;;3.97;2.80;;;;;;;-140.72;100.00;53291.88;6272471;22;19996;-69
2023/01/28 06:03:06;;;;;;;2.70;1.90;;;;;;;-140.72;100.00;53279.72;6272359;22;19999;-68
2023/01/28 06:05:31;;;;;;;5.47;1.98;;;;;;;-140.72;100.00;53275.66;6271267;22;20114;-68
2023/01/28 06:07:56;;;;;;;2.92;2.15;;;;;;;-140.72;100.00;53224.91;6271949;22;20007;-69
2023/01/28 06:10:22;;;;;;;4.32;2.80;;;;;;;-140.72;100.00;53304.06;6272634;22;20403;-69
2023/01/28 06:12:48;;;;;;;5.57;2.65;;;;;;;-140.72;100.00;53273.63;6273067;22;20045;-68
2023/01/28 06:15:14;;;;;;;2.92;1.92;;;;;;;-140.72;100.00;53267.53;6274099;22;20429;-71
2023/01/28 06:17:39;;;;;;;3.17;2.30;;;;;;;-140.72;100.00;53265.50;6274342;22;19999;-69
2023/01/28 06:20:07;;;;;;;3.03;1.83;;;;;;;-140.72;100.00;53279.72;6273346;22;20212;-68
2023/01/28 06:22:32;;;;;;;4.13;2.13;;;;;;;-140.72;100.00;53255.34;6274038;22;20054;-71
2023/01/28 06:24:58;;;;;;;3.63;2.17;;;;;;;-140.72;100.00;53279.72;6273492;22;20004;-68
2023/01/28 06:27:23;;;;;;;4.38;2.47;;;;;;;-140.72;100.00;53265.50;6273494;22;20034;-68
2023/01/28 06:29:49;;;;;;;3.50;2.50;;;;;;;-140.72;100.00;53267.53;6274028;22;20033;-68
2023/01/28 06:32:14;;;;;;;2.67;2.08;;;;;;;-140.72;100.00;53263.47;6273989;22;20004;-70
2023/01/28 06:34:42;;;;;;;5.30;2.58;;;;;;;-140.72;100.00;53295.94;6274178;22;20006;-68
2023/01/28 06:37:08;;;;;;;4.15;2.20;;;;;;;-140.72;100.00;53279.72;6273052;22;20080;-68
2023/01/28 06:39:33;;;;;;;4.53;2.58;;;;;;;-140.72;100.00;53249.28;6274221;22;20503;-71
2023/01/28 06:41:59;;;;;;;4.80;2.05;;;;;;;-140.72;100.00;53269.56;6273743;22;20306;-68
2023/01/28 06:44:25;;;;;;;5.85;3.05;;;;;;;-140.72;100.00;53247.25;6274740;22;20027;-69
2023/01/28 06:46:50;;;;;;;3.90;2.45;;;;;;;-140.72;100.00;53287.84;6272827;22;20433;-70
2023/01/28 06:49:16;;;;;;;3.55;2.40;;;;;;;-140.72;100.00;53226.94;6274597;22;20014;-68
2023/01/28 06:51:41;;;;;;;8.93;2.83;;;;;;;-140.72;100.00;53261.44;6274120;22;19995;-70
2023/01/28 06:54:07;;;;;;;6.65;2.85;;;;;;;-140.72;100.00;53269.56;6272887;22;20002;-68
2023/01/28 06:56:32;;;;;;;4.50;2.85;;;;;;;-140.72;100.00;53263.47;6274465;22;20516;-70
2023/01/28 06:59:00;;;;;;;5.63;2.58;;;;;;;-140.72;100.00;53263.47;6274410;22;20012;-70
2023/01/28 07:01:26;;;;;;;2.95;1.88;;;;;;;-140.72;100.00;53257.38;6273788;22;20004;-68
2023/01/28 07:03:51;;;;;;;3.67;2.35;;;;;;;-140.72;100.00;53289.88;6272470;22;20106;-70
2023/01/28 07:06:17;;;;;;;4.68;2.97;;;;;;;-140.72;100.00;53267.53;6274134;22;20004;-70
2023/01/28 07:08:42;;;;;;;4.60;3.10;;;;;;;-140.72;100.00;53226.94;6272859;22;20003;-70
2023/01/28 07:11:07;;;;;;;5.70;2.25;;;;;;;-140.72;100.00;53285.81;6271686;22;20452;-68
2023/01/28 07:13:33;;;;;;;4.85;3.00;;;;;;;-140.72;100.00;53271.59;6272285;22;20053;-72
2023/01/28 07:15:59;;;;;;;6.30;3.05;;;;;;;-140.72;100.00;53239.13;6272362;22;20008;-69
2023/01/28 07:18:25;;;;;;;3.63;2.38;;;;;;;-140.72;100.00;53271.59;6273605;22;20000;-71
2023/01/28 07:20:51;;;;;;;4.68;3.38;;;;;;;-140.72;100.00;53283.78;6274097;22;20068;-69
2023/01/28 07:23:17;;;;;;;5.97;3.38;;;;;;;-140.72;100.00;53287.84;6272612;22;20121;-68
2023/01/28 07:25:45;;;;;;;4.97;2.95;;;;;;;-140.72;100.00;53259.41;6274007;22;20011;-68
2023/01/28 07:28:11;;;;;;;3.28;2.42;;;;;;;-140.72;100.00;53263.47;6273906;22;19999;-68
2023/01/28 07:30:37;;;;;;;3.92;2.83;;;;;;;-140.72;100.00;53289.88;6273054;22;20330;-68
2023/01/28 07:33:02;;;;;;;4.05;2.92;;;;;;;-140.72;100.00;53251.31;6273378;22;20018;-68
2023/01/28 07:35:28;;;;;;;5.22;3.25;;;;;;;-140.72;100.00;53269.56;6273695;22;20406;-71
2023/01/28 07:37:59;;;;;;;5.97;3.10;;;;;;;-140.72;100.00;53245.22;6271864;22;20007;-69
2023/01/28 07:40:26;;;;;;;4.07;3.08;;;;;;;-140.72;100.00;53243.19;6273911;22;20031;-69
2023/01/28 07:42:54;;;;;;;5.03;3.08;;;;;;;-140.72;100.00;53277.69;6245627;22;20007;-69
2023/01/28 07:45:19;;;;;;;6.28;3.63;;;;;;;-140.72;100.00;53283.78;6274174;22;20004;-69
2023/01/28 07:48:03;;;;;;;5.43;3.28;;;;;;;-140.72;100.00;53285.81;6272880;22;20006;-69
2023/01/28 07:50:30;;;;;;;4.93;3.08;;;;;;;-140.72;100.00;53263.47;6272144;22;20031;-69
2023/01/28 07:52:56;;;;;;;4.55;2.67;;;;;;;-140.72;100.00;53263.47;6273304;22;20069;-68
2023/01/28 07:55:22;;;;;;;5.65;3.28;;;;;;;-140.72;100.00;53269.56;6273665;22;20310;-68
2023/01/28 07:57:52;;;;;;;4.13;3.28;;;;;;;-140.72;100.00;53316.25;6273071;22;20007;-70
2023/01/28 08:00:19;;;;;;;4.40;2.35;;;;;;;-140.72;100.00;53269.56;6274057;22;20091;-69
2023/01/28 08:02:46;;;;;;;5.78;2.97;;;;;;;-140.72;100.00;53285.81;6273662;22;20003;-69
2023/01/28 08:05:20;;;;;;;6.03;3.17;;;;;;;-140.72;100.00;53267.53;6273386;22;20004;-68
2023/01/28 08:07:47;;;;;;;4.32;2.88;;;;;;;-140.72;100.00;53279.72;6272841;22;20389;-69
2023/01/28 08:10:14;;;;;;;4.72;3.25;;;;;;;-140.72;100.00;53304.06;6273973;22;20003;-69
2023/01/28 08:12:40;;;;;;;10.98;3.47;;;;;;;-140.72;100.00;53277.69;6272288;22;19999;-69
2023/01/28 08:15:06;;;;;;;5.32;3.28;;;;;;;-140.72;100.00;53247.25;6270632;22;20026;-70
2023/01/28 08:17:32;;;;;;;4.25;2.75;;;;;;;-140.72;100.00;53300.00;6272536;22;20003;-67
2023/01/28 08:19:58;;;;;;;8.43;3.25;;;;;;;-140.72;100.00;53273.63;6272395;22;20003;-68
2023/01/28 08:22:26;;;;;;;4.60;2.80;;;;;;;-140.72;100.00;53259.41;6272687;22;20000;-67
2023/01/28 08:24:52;;;;;;;4.30;2.50;;;;;;;-140.72;100.00;53273.63;6271543;22;20000;-67
2023/01/28 08:27:17;;;;;;;4.75;3.65;;;;;;;-140.72;100.00;53263.47;6272984;22;20287;-67
2023/01/28 08:29:43;;;;;;;5.20;2.95;;;;;;;-140.72;100.00;53283.78;6273222;22;19999;-67
2023/01/28 08:32:09;;;;;;;5.75;2.85;;;;;;;-140.72;100.00;53263.47;6271811;22;20000;-68
2023/01/28 08:34:37;;;;;;;4.20;2.22;;;;;;;-140.72;100.00;53312.19;6273345;22;19995;-67
2023/01/28 08:37:04;;;;;;;4.43;2.88;;;;;;;-140.72;100.00;53285.81;6272649;22;20338;-67
2023/01/28 08:39:30;;;;;;;5.22;3.10;;;;;;;-140.72;100.00;53247.25;6272842;22;20425;-67
2023/01/28 08:41:55;;;;;;;7.15;3.90;;;;;;;-140.72;100.00;53235.06;6272419;22;20012;-67
2023/01/28 08:44:20;;;;;;;6.97;3.15;;;;;;;-140.72;100.00;53265.50;6273529;22;20074;-67
2023/01/28 08:46:46;;;;;;;6.03;3.42;;;;;;;-140.72;100.00;53253.31;6271764;22;19999;-66
2023/01/28 08:49:14;;;;;;;6.07;3.33;;;;;;;-140.72;100.00;53273.63;6270633;22;20075;-67
2023/01/28 08:51:40;;;;;;;5.20;3.08;;;;;;;-140.72;100.00;53235.06;6271421;22;20425;-67
2023/01/28 08:54:05;;;;;;;5.15;2.90;;;;;;;-140.72;100.00;53263.47;6271153;22;20004;-67
2023/01/28 08:56:30;;;;;;;4.32;2.67;;;;;;;-140.72;100.00;53279.72;6271495;22;20433;-66
2023/01/28 08:58:56;;;;;;;5.82;3.22;;;;;;;-140.72;100.00;53287.84;6272551;22;20000;-68
2023/01/28 09:01:26;;;;;;;3.53;2.17;;;;;;;-140.72;100.00;53243.19;6272383;22;20425;-67
2023/01/28 09:03:51;;;;;;;;;;;;;;;-140.72;100.00;53251.31;6271165;22;20007;-67
2023/01/28 09:06:16;;;;;;;5.18;2.28;;;;;;;-140.72;100.00;53295.94;6271970;22;20397;-67
2023/01/28 09:08:42;;;;;;;4.22;2.30;;;;;;;-140.72;100.00;53293.91;6271558;22;20470;-67
2023/01/28 09:11:07;;;;;;;4.82;3.35;;;;;;;-140.72;100.00;53263.47;6272374;22;20004;-66
2023/01/28 09:13:32;;;;;;;4.43;2.70;;;;;;;-140.72;100.00;53267.53;6271448;22;20033;-67
2023/01/28 09:15:58;;;;;;;5.75;3.30;;;;;;;-140.72;100.00;53257.38;6271326;22;20034;-66
2023/01/28 09:18:23;;;;;;;4.03;2.60;;;;;;;-140.72;100.00;53279.72;6273200;22;20027;-66
2023/01/28 09:20:49;;;;;;;5.32;3.10;;;;;;;-140.72;100.00;53253.31;6271907;22;20007;-67
2023/01/28 09:23:14;;;;;;;5.07;3.22;;;;;;;-140.72;100.00;53269.56;6272342;22;20008;-65
2023/01/28 09:25:40;;;;;;;4.38;2.83;;;;;;;-140.72;100.00;53239.13;6272728;22;20448;-69
2023/01/28 09:28:06;;;;;;;5.35;3.75;;;;;;;-140.72;100.00;53267.53;6272076;22;20070;-67
2023/01/28 09:30:34;;;;;;;5.32;3.25;;;;;;;-140.72;100.00;53231.00;6272656;22;20004;-67
2023/01/28 09:32:59;;;;;;;3.55;2.95;;;;;;;-140.72;100.00;53249.28;6272513;22;20074;-67
2023/01/28 09:35:24;;;;;;;6.47;3.08;;;;;;;-140.72;100.00;53271.59;6271855;22;20408;-68
2023/01/28 09:37:50;;;;;;;4.45;3.10;;;;;;;-140.72;100.00;53263.47;6272517;22;20012;-67
2023/01/28 09:40:24;;;;;;;4.35;2.67;;;;;;;-140.72;100.00;53239.13;6272629;22;20003;-68
2023/01/28 09:43:23;;;;;;;4.47;2.97;;;;;;;-140.72;100.00;53224.91;6271694;22;19995;-67
2023/01/28 09:45:52;;;;;;;4.18;2.75;;;;;;;-140.72;100.00;53202.59;6272125;22;20035;-67
2023/01/28 09:48:35;;;;;;;8.35;2.70;;;;;;;-140.72;100.00;53267.53;6272751;22;20002;-68
2023/01/28 09:51:00;;;;;;;3.97;2.35;;;;;;;-140.72;100.00;53263.47;6271857;22;19996;-67
2023/01/28 09:53:32;;;;;;;4.25;2.35;;;;;;;-140.72;100.00;53237.09;6273363;22;20058;-67
2023/01/28 09:56:04;;;;;;;4.03;2.33;;;;;;;-140.72;100.00;53196.50;6271839;22;20691;-67
2023/01/28 09:58:30;;;;;;;3.15;2.45;;;;;;;-140.72;100.00;53226.94;6272525;22;20003;-67
2023/01/28 10:01:10;;;;;;;4.72;2.15;;;;;;;-140.72;100.00;53206.66;6272555;22;20011;-67
2023/01/28 10:03:42;;;;;;;4.65;2.65;;;;;;;-140.72;100.00;53206.66;6272273;22;20015;-67
2023/01/28 10:06:40;;;;;;;4.93;3.03;;;;;;;-140.72;100.00;53202.59;6271720;22;20026;-69
2023/01/28 10:09:45;;;;;;;3.83;2.35;;;;;;;-140.72;100.00;53255.34;6272569;22;20035;-68
2023/01/28 10:12:23;;;;;;;3.13;1.98;;;;;;;-140.72;100.00;53202.59;6271891;22;20004;-66
2023/01/28 10:14:48;;;;;;;3.13;2.22;;;;;;;-140.72;100.00;53190.41;6271887;22;20424;-66
2023/01/28 10:17:25;;;;;;;4.35;2.78;;;;;;;-140.72;100.00;53226.94;6272049;22;20008;-66
2023/01/28 10:19:59;;;;;;;4.00;2.45;;;;;;;-140.72;100.00;53222.88;6272299;22;20062;-66
2023/01/28 10:22:30;;;;;;;3.97;2.20;;;;;;;-140.72;100.00;53275.66;6273321;22;20062;-65
2023/01/28 10:25:05;;;;;;;3.40;2.42;;;;;;;-140.72;100.00;53204.63;6271688;22;19999;-66
2023/01/28 10:27:32;;;;;;;4.05;2.47;;;;;;;-140.72;100.00;53188.38;6272954;22;20006;-67
2023/01/28 10:30:14;;;;;;;5.63;3.00;;;;;;;-140.72;100.00;53192.44;6271807;22;20000;-67
2023/01/28 10:32:47;;;;;;;3.30;2.47;;;;;;;-140.72;100.00;53218.81;6272021;22;20322;-66
2023/01/28 10:35:12;;;;;;;4.25;3.05;;;;;;;-140.72;100.00;53259.41;6272508;22;20415;-66
2023/01/28 10:37:39;;;;;;;3.92;2.70;;;;;;;-140.72;100.00;53243.19;6272802;22;20004;-66
2023/01/28 10:40:11;;;;;;;4.70;2.72;;;;;;;-140.72;100.00;53214.78;6270766;22;20418;-65
2023/01/28 10:42:37;;;;;;;4.57;3.33;;;;;;;-140.72;100.00;53251.31;6271535;22;19999;-65
2023/01/28 10:45:39;;;;;;;3.13;2.30;;;;;;;-140.72;100.00;53249.28;6271899;22;20031;-65
2023/01/28 10:48:28;;;;;;;3.75;2.63;;;;;;;-140.72;100.00;53228.97;6272639;22;20000;-68
2023/01/28 10:51:01;;;;;;;4.60;3.00;;;;;;;-140.72;100.00;53279.72;6269837;22;20326;-68
2023/01/28 10:53:37;;;;;;;3.25;2.40;;;;;;;-140.72;100.00;53255.34;6271518;22;20018;-68
2023/01/28 10:56:13;;;;;;;5.07;3.08;;;;;;;-140.72;100.00;53235.06;6272483;22;20007;-67
2023/01/28 10:58:53;;;;;;;4.32;2.53;;;;;;;-140.72;100.00;53228.97;6273010;22;20313;-67
2023/01/28 11:01:19;;;;;;;4.65;2.97;;;;;;;-140.72;100.00;53269.56;6273062;22;20007;-67
2023/01/28 11:03:56;;;;;;;6.15;3.17;;;;;;;-140.72;100.00;53239.13;6273718;22;20000;-67
2023/01/28 11:06:25;;;;;;;3.97;3.10;;;;;;;-140.72;100.00;53271.59;6273852;22;20004;-68
2023/01/28 11:08:50;;;;;;;6.88;3.03;;;;;;;-140.72;100.00;53247.25;6273860;22;20082;-68
2023/01/28 11:11:24;;;;;;;6.55;3.17;;;;;;;-140.72;100.00;53226.94;6273817;22;20441;-68
2023/01/28 11:13:52;;;;;;;5.05;2.78;;;;;;;-140.72;100.00;53202.59;6272041;22;20000;-69
2023/01/28 11:16:18;;;;;;;7.18;3.70;;;;;;;-140.72;100.00;53239.13;6272475;22;19996;-67
2023/01/28 11:18:53;;;;;;;3.95;2.92;;;;;;;-140.72;100.00;53249.28;6273055;22;20000;-67
2023/01/28 11:21:21;;;;;;;4.45;3.45;;;;;;;-140.72;100.00;53279.72;6272643;22;20309;-68
2023/01/28 11:23:57;;;;;;;4.38;3.08;;;;;;;-140.72;100.00;53249.28;6272352;22;20075;-68
2023/01/28 11:26:26;;;;;;;7.32;2.85;;;;;;;-140.72;100.00;53231.00;6273224;22;20038;-67
2023/01/28 11:28:52;;;;;;;4.82;2.67;;;;;;;-140.72;100.00;53202.59;6272237;22;20090;-67
2023/01/28 11:31:20;;;;;;;4.72;2.80;;;;;;;-140.72;100.00;53265.50;6274238;22;20367;-68
2023/01/28 11:33:51;;;;;;;6.47;2.83;;;;;;;-140.72;100.00;53239.13;6273505;22;20693;-69
2023/01/28 11:36:20;;;;;;;4.72;2.83;;;;;;;-140.72;100.00;53233.03;6273243;22;20045;-68
2023/01/28 11:38:57;;;;;;;3.30;2.17;;;;;;;-140.72;100.00;53216.78;6273695;22;20418;-67
2023/01/28 11:41:28;;;;;;;4.72;2.95;;;;;;;-140.72;100.00;53202.59;6274418;22;20297;-67
2023/01/28 11:43:54;;;;;;;6.47;3.50;;;;;;;-140.72;100.00;53188.38;6273098;22;20125;-67
2023/01/28 11:46:19;;;;;;;4.40;2.13;;;;;;;-140.72;100.00;53239.13;6274016;22;20011;-67
2023/01/28 11:49:12;;;;;;;3.88;2.38;;;;;;;-140.72;100.00;53206.66;6274076;22;20410;-68
2023/01/28 11:52:01;;;;;;;3.22;2.13;;;;;;;-140.72;100.00;53198.53;6273610;22;20223;-67
2023/01/28 11:54:44;;;;;;;3.97;2.23;;;;;;;-140.72;100.00;53243.19;6273543;22;20426;-68